createdAt,value
2017-07-14T00:00:58.868Z,0
2017-07-14T00:01:58.861Z,0
2017-07-14T00:02:58.850Z,0
2017-07-14T00:03:58.170Z,0
2017-07-14T00:04:58.493Z,0
2017-07-14T00:05:58.178Z,0
2017-07-14T00:06:58.522Z,0
2017-07-14T00:07:58.803Z,0
2017-07-14T00:08:58.790Z,0
2017-07-14T00:09:58.473Z,0
2017-07-14T00:10:58.132Z,0
2017-07-14T00:11:59.416Z,0
2017-07-14T00:12:58.751Z,0
2017-07-14T00:13:58.410Z,0
2017-07-14T00:14:58.070Z,0
2017-07-14T00:15:58.063Z,0
2017-07-14T00:16:58.055Z,0
2017-07-14T00:17:58.048Z,0
2017-07-14T00:18:58.057Z,0
2017-07-14T00:19:58.039Z,0
2017-07-14T00:20:58.683Z,0
2017-07-14T00:21:58.014Z,0
2017-07-14T00:22:58.653Z,0
2017-07-14T00:23:58.643Z,0
2017-07-14T00:24:58.662Z,0
2017-07-14T00:25:58.301Z,0
2017-07-14T00:26:57.968Z,0
2017-07-14T00:27:58.300Z,0
2017-07-14T00:28:58.275Z,0
2017-07-14T00:29:58.271Z,0
2017-07-14T00:30:58.254Z,0
2017-07-14T00:31:57.924Z,0
2017-07-14T00:32:58.568Z,0
2017-07-14T00:33:58.590Z,0
2017-07-14T00:34:58.550Z,0
2017-07-14T00:35:58.549Z,0
2017-07-14T00:36:58.203Z,0
2017-07-14T00:37:58.194Z,0
2017-07-14T00:38:58.189Z,0
2017-07-14T00:39:58.212Z,0
2017-07-14T00:40:58.837Z,0
2017-07-14T00:41:58.532Z,0
2017-07-14T00:42:58.158Z,0
2017-07-14T00:43:58.817Z,0
2017-07-14T00:44:57.805Z,0
2017-07-14T00:45:58.145Z,0
2017-07-14T00:46:58.446Z,0
2017-07-14T00:47:58.434Z,0
2017-07-14T00:48:58.091Z,0
2017-07-14T00:49:58.083Z,0
2017-07-14T00:50:58.748Z,0
2017-07-14T00:51:58.069Z,0
2017-07-14T00:52:58.066Z,0
2017-07-14T00:53:58.709Z,0
2017-07-14T00:54:58.057Z,0
2017-07-14T00:55:58.064Z,0
2017-07-14T00:56:59.007Z,0
2017-07-14T00:57:58.672Z,0
2017-07-14T00:58:58.334Z,0
2017-07-14T00:59:58.006Z,0
2017-07-14T01:00:57.994Z,0
2017-07-14T01:01:57.648Z,0
2017-07-14T01:02:57.998Z,0
2017-07-14T01:03:57.985Z,0
2017-07-14T01:04:57.620Z,0
2017-07-14T01:05:58.018Z,0
2017-07-14T01:06:57.934Z,0
2017-07-14T01:07:58.249Z,0
2017-07-14T01:08:57.584Z,0
2017-07-14T01:09:58.566Z,0
2017-07-14T01:10:57.568Z,0
2017-07-14T01:11:58.547Z,0
2017-07-14T01:12:58.252Z,0
2017-07-14T01:13:57.878Z,0
2017-07-14T01:14:57.863Z,0
2017-07-14T01:15:58.518Z,0
2017-07-14T01:16:58.185Z,0
2017-07-14T01:17:57.505Z,0
2017-07-14T01:18:57.510Z,0
2017-07-14T01:19:57.819Z,0
2017-07-14T01:20:57.958Z,0
2017-07-14T01:21:58.122Z,0
2017-07-14T01:22:58.109Z,0
2017-07-14T01:23:57.791Z,0
2017-07-14T01:24:57.440Z,0
2017-07-14T01:25:57.432Z,0
2017-07-14T01:26:57.754Z,0
2017-07-14T01:27:57.435Z,0
2017-07-14T01:28:58.393Z,0
2017-07-14T01:29:57.397Z,0
2017-07-14T01:30:58.388Z,0
2017-07-14T01:31:58.056Z,0
2017-07-14T01:32:57.374Z,0
2017-07-14T01:33:58.369Z,0
2017-07-14T01:34:58.023Z,0
2017-07-14T01:35:57.671Z,0
2017-07-14T01:36:57.656Z,0
2017-07-14T01:37:58.018Z,0
2017-07-14T01:38:57.979Z,0
2017-07-14T01:39:57.307Z,0
2017-07-14T01:40:57.631Z,0
2017-07-14T01:41:57.967Z,0
2017-07-14T01:42:57.933Z,0
2017-07-14T01:43:57.954Z,0
2017-07-14T01:44:58.243Z,0
2017-07-14T01:45:57.260Z,0
2017-07-14T01:46:57.906Z,0
2017-07-14T01:47:57.237Z,0
2017-07-14T01:48:57.247Z,0
2017-07-14T01:49:57.545Z,0
2017-07-14T01:50:57.867Z,0
2017-07-14T01:51:57.200Z,0
2017-07-14T01:53:00.672Z,0
2017-07-14T01:53:57.871Z,0
2017-07-14T01:54:57.174Z,0
2017-07-14T01:55:57.528Z,0
2017-07-14T01:56:57.158Z,0
2017-07-14T01:57:58.129Z,0
2017-07-14T01:58:57.137Z,0
2017-07-14T01:59:57.788Z,0
2017-07-14T02:00:57.452Z,0
2017-07-14T02:01:57.470Z,0
2017-07-14T02:02:57.757Z,0
2017-07-14T02:03:57.423Z,0
2017-07-14T02:04:57.751Z,0
2017-07-14T02:05:57.738Z,0
2017-07-14T02:06:57.401Z,0
2017-07-14T02:07:57.720Z,0
2017-07-14T02:08:57.409Z,0
2017-07-14T02:09:57.365Z,0
2017-07-14T02:10:57.388Z,0
2017-07-14T02:11:57.364Z,0
2017-07-14T02:12:57.013Z,0
2017-07-14T02:13:57.331Z,0
2017-07-14T02:14:57.650Z,0
2017-07-14T02:15:57.319Z,0
2017-07-14T02:16:57.311Z,0
2017-07-14T02:17:58.282Z,0
2017-07-14T02:18:57.309Z,0
2017-07-14T02:19:57.657Z,0
2017-07-14T02:20:57.285Z,0
2017-07-14T02:21:57.647Z,0
2017-07-14T02:22:57.289Z,0
2017-07-14T02:23:57.896Z,0
2017-07-14T02:24:57.259Z,0
2017-07-14T02:25:57.554Z,0
2017-07-14T02:26:57.875Z,0
2017-07-14T02:27:56.899Z,0
2017-07-14T02:28:56.881Z,0
2017-07-14T02:29:57.191Z,0
2017-07-14T02:30:57.200Z,0
2017-07-14T02:31:57.175Z,0
2017-07-14T02:32:57.843Z,0
2017-07-14T02:33:57.167Z,0
2017-07-14T02:34:57.145Z,0
2017-07-14T02:35:57.476Z,0
2017-07-14T02:36:56.819Z,0
2017-07-14T02:37:57.456Z,0
2017-07-14T02:38:57.137Z,0
2017-07-14T02:39:57.103Z,0
2017-07-14T02:40:57.424Z,0
2017-07-14T02:41:57.430Z,0
2017-07-14T02:42:57.400Z,0
2017-07-14T02:43:57.069Z,0
2017-07-14T02:44:57.061Z,0
2017-07-14T02:45:57.097Z,0
2017-07-14T02:46:57.401Z,0
2017-07-14T02:47:57.033Z,0
2017-07-14T02:48:57.384Z,0
2017-07-14T02:49:57.014Z,0
2017-07-14T02:50:57.014Z,0
2017-07-14T02:51:56.673Z,0
2017-07-14T02:52:56.660Z,0
2017-07-14T02:53:56.984Z,0
2017-07-14T02:54:56.980Z,0
2017-07-14T02:55:56.638Z,0
2017-07-14T02:56:57.652Z,0
2017-07-14T02:57:57.289Z,0
2017-07-14T02:58:57.271Z,0
2017-07-14T02:59:56.944Z,0
2017-07-14T03:00:57.250Z,0
2017-07-14T03:01:57.249Z,0
2017-07-14T03:02:57.227Z,0
2017-07-14T03:03:57.239Z,0
2017-07-14T03:04:56.897Z,0
2017-07-14T03:05:56.882Z,0
2017-07-14T03:06:57.196Z,0
2017-07-14T03:07:56.871Z,0
2017-07-14T03:08:57.503Z,0
2017-07-14T03:09:56.841Z,0
2017-07-14T03:10:56.505Z,0
2017-07-14T03:11:57.165Z,0
2017-07-14T03:12:57.147Z,0
2017-07-14T03:13:56.481Z,5
2017-07-14T03:14:56.471Z,5
2017-07-14T03:15:57.462Z,5
2017-07-14T03:16:56.782Z,5
2017-07-14T03:17:56.443Z,5
2017-07-14T03:18:56.435Z,5
2017-07-14T03:19:57.433Z,5
2017-07-14T03:20:56.752Z,5
2017-07-14T03:21:56.742Z,5
2017-07-14T03:22:56.742Z,5
2017-07-14T03:23:56.737Z,5
2017-07-14T03:24:56.385Z,10
2017-07-14T03:25:57.033Z,10
2017-07-14T03:26:57.020Z,10
2017-07-14T03:27:57.690Z,10
2017-07-14T03:28:57.057Z,10
2017-07-14T03:29:57.332Z,15
2017-07-14T03:30:56.336Z,15
2017-07-14T03:31:56.656Z,15
2017-07-14T03:32:57.317Z,20
2017-07-14T03:33:56.306Z,20
2017-07-14T03:34:56.629Z,20
2017-07-14T03:35:56.645Z,20
2017-07-14T03:36:56.610Z,25
2017-07-14T03:37:56.604Z,25
2017-07-14T03:38:56.262Z,25
2017-07-14T03:39:57.236Z,30
2017-07-14T03:40:56.573Z,30
2017-07-14T03:41:56.238Z,30
2017-07-14T03:42:56.922Z,30
2017-07-14T03:43:56.220Z,35
2017-07-14T03:44:56.540Z,35
2017-07-14T03:45:56.549Z,35
2017-07-14T03:46:56.196Z,30
2017-07-14T03:47:56.847Z,30
2017-07-14T03:48:56.510Z,35
2017-07-14T03:49:57.166Z,35
2017-07-14T03:50:56.489Z,35
2017-07-14T03:51:56.881Z,35
2017-07-14T03:52:56.539Z,35
2017-07-14T03:53:56.135Z,40
2017-07-14T03:54:56.791Z,40
2017-07-14T03:55:56.118Z,40
2017-07-14T03:56:56.114Z,45
2017-07-14T03:57:56.432Z,45
2017-07-14T03:58:56.424Z,45
2017-07-14T03:59:56.100Z,50
2017-07-14T04:00:56.429Z,50
2017-07-14T04:01:56.730Z,50
2017-07-14T04:02:56.388Z,55
2017-07-14T04:03:56.402Z,55
2017-07-14T04:04:57.027Z,50
2017-07-14T04:05:56.384Z,50
2017-07-14T04:06:56.352Z,45
2017-07-14T04:07:56.016Z,40
2017-07-14T04:08:56.014Z,35
2017-07-14T04:09:56.671Z,35
2017-07-14T04:10:56.343Z,35
2017-07-14T04:11:56.316Z,35
2017-07-14T04:12:56.316Z,40
2017-07-14T04:13:56.298Z,45
2017-07-14T04:14:56.974Z,45
2017-07-14T04:15:55.954Z,50
2017-07-14T04:16:56.606Z,50
2017-07-14T04:17:56.268Z,55
2017-07-14T04:18:55.930Z,60
2017-07-14T04:19:56.581Z,60
2017-07-14T04:20:56.244Z,65
2017-07-14T04:21:56.239Z,65
2017-07-14T04:22:56.571Z,65
2017-07-14T04:23:56.216Z,70
2017-07-14T04:24:56.209Z,70
2017-07-14T04:25:56.206Z,75
2017-07-14T04:26:55.871Z,80
2017-07-14T04:27:55.859Z,85
2017-07-14T04:28:55.859Z,85
2017-07-14T04:29:55.864Z,85
2017-07-14T04:30:55.838Z,90
2017-07-14T04:31:56.159Z,90
2017-07-14T04:32:55.821Z,95
2017-07-14T04:33:56.149Z,95
2017-07-14T04:34:55.809Z,100
2017-07-14T04:35:56.802Z,100
2017-07-14T04:36:55.812Z,105
2017-07-14T04:37:56.143Z,110
2017-07-14T04:38:56.131Z,115
2017-07-14T04:39:56.420Z,120
2017-07-14T04:40:56.090Z,125
2017-07-14T04:41:56.421Z,130
2017-07-14T04:42:55.746Z,135
2017-07-14T04:43:56.412Z,140
2017-07-14T04:44:57.088Z,145
2017-07-14T04:45:56.381Z,150
2017-07-14T04:46:55.714Z,155
2017-07-14T04:47:56.381Z,155
2017-07-14T04:48:56.040Z,150
2017-07-14T04:49:56.358Z,150
2017-07-14T04:50:56.013Z,150
2017-07-14T04:51:56.332Z,150
2017-07-14T04:52:56.331Z,150
2017-07-14T04:53:55.993Z,150
2017-07-14T04:54:56.318Z,155
2017-07-14T04:55:55.647Z,160
2017-07-14T04:56:55.655Z,170
2017-07-14T04:57:55.984Z,175
2017-07-14T04:58:55.628Z,185
2017-07-14T04:59:55.627Z,185
2017-07-14T05:00:56.620Z,190
2017-07-14T05:01:56.272Z,185
2017-07-14T05:02:55.930Z,190
2017-07-14T05:03:56.247Z,190
2017-07-14T05:04:56.253Z,185
2017-07-14T05:05:56.235Z,180
2017-07-14T05:06:56.225Z,175
2017-07-14T05:07:55.572Z,175
2017-07-14T05:08:55.895Z,175
2017-07-14T05:09:55.882Z,175
2017-07-14T05:10:55.873Z,175
2017-07-14T05:11:55.864Z,175
2017-07-14T05:12:56.206Z,175
2017-07-14T05:13:55.848Z,175
2017-07-14T05:14:55.861Z,180
2017-07-14T05:15:55.844Z,180
2017-07-14T05:16:55.501Z,175
2017-07-14T05:17:55.829Z,175
2017-07-14T05:18:56.147Z,175
2017-07-14T05:19:56.141Z,180
2017-07-14T05:20:55.799Z,195
2017-07-14T05:21:56.125Z,200
2017-07-14T05:22:55.795Z,205
2017-07-14T05:23:56.115Z,210
2017-07-14T05:24:55.447Z,210
2017-07-14T05:25:55.794Z,205
2017-07-14T05:26:55.763Z,200
2017-07-14T05:27:55.760Z,195
2017-07-14T05:28:55.777Z,185
2017-07-14T05:29:55.419Z,175
2017-07-14T05:30:55.754Z,160
2017-07-14T05:31:55.739Z,155
2017-07-14T05:32:55.759Z,155
2017-07-14T05:33:55.720Z,155
2017-07-14T05:34:56.380Z,160
2017-07-14T05:35:56.035Z,160
2017-07-14T05:36:55.698Z,165
2017-07-14T05:37:56.024Z,165
2017-07-14T05:38:55.358Z,170
2017-07-14T05:39:56.013Z,180
2017-07-14T05:40:56.033Z,175
2017-07-14T05:41:55.686Z,165
2017-07-14T05:42:55.668Z,165
2017-07-14T05:43:55.679Z,165
2017-07-14T05:44:56.336Z,160
2017-07-14T05:45:55.973Z,160
2017-07-14T05:46:55.654Z,165
2017-07-14T05:47:55.651Z,170
2017-07-14T05:48:55.309Z,195
2017-07-14T05:49:55.959Z,210
2017-07-14T05:50:55.299Z,230
2017-07-14T05:51:55.611Z,240
2017-07-14T05:52:55.606Z,240
2017-07-14T05:53:55.270Z,220
2017-07-14T05:54:55.594Z,195
2017-07-14T05:55:55.592Z,175
2017-07-14T05:56:55.909Z,165
2017-07-14T05:57:55.902Z,170
2017-07-14T05:58:55.910Z,180
2017-07-14T05:59:55.234Z,190
2017-07-14T06:00:56.230Z,195
2017-07-14T06:01:55.550Z,200
2017-07-14T06:02:55.897Z,200
2017-07-14T06:03:56.227Z,205
2017-07-14T06:04:55.217Z,205
2017-07-14T06:05:55.200Z,210
2017-07-14T06:06:55.868Z,215
2017-07-14T06:07:55.188Z,220
2017-07-14T06:08:55.841Z,225
2017-07-14T06:09:55.504Z,230
2017-07-14T06:10:55.513Z,235
2017-07-14T06:11:55.857Z,255
2017-07-14T06:12:55.823Z,265
2017-07-14T06:13:55.487Z,265
2017-07-14T06:14:55.478Z,275
2017-07-14T06:15:55.478Z,285
2017-07-14T06:16:55.141Z,290
2017-07-14T06:17:55.801Z,280
2017-07-14T06:18:55.787Z,285
2017-07-14T06:19:55.123Z,300
2017-07-14T06:20:55.464Z,340
2017-07-14T06:21:55.446Z,390
2017-07-14T06:22:55.781Z,425
2017-07-14T06:23:55.441Z,455
2017-07-14T06:24:55.426Z,445
2017-07-14T06:25:55.756Z,415
2017-07-14T06:26:55.092Z,410
2017-07-14T06:27:55.770Z,420
2017-07-14T06:28:55.742Z,420
2017-07-14T06:29:55.413Z,405
2017-07-14T06:30:55.402Z,375
2017-07-14T06:31:55.071Z,365
2017-07-14T06:32:55.726Z,365
2017-07-14T06:33:55.389Z,375
2017-07-14T06:34:56.047Z,395
2017-07-14T06:35:55.727Z,405
2017-07-14T06:36:55.417Z,395
2017-07-14T06:37:55.729Z,385
2017-07-14T06:38:55.065Z,385
2017-07-14T06:39:55.704Z,410
2017-07-14T06:40:55.714Z,440
2017-07-14T06:41:55.364Z,475
2017-07-14T06:42:55.685Z,470
2017-07-14T06:43:55.696Z,425
2017-07-14T06:44:55.687Z,395
2017-07-14T06:45:55.349Z,385
2017-07-14T06:46:55.352Z,390
2017-07-14T06:47:55.348Z,390
2017-07-14T06:48:55.339Z,400
2017-07-14T06:49:55.666Z,420
2017-07-14T06:50:55.688Z,425
2017-07-14T06:51:55.662Z,445
2017-07-14T06:52:55.663Z,470
2017-07-14T06:53:55.330Z,555
2017-07-14T06:54:55.668Z,460
2017-07-14T06:55:55.986Z,415
2017-07-14T06:56:55.329Z,430
2017-07-14T06:57:55.010Z,385
2017-07-14T06:58:55.646Z,375
2017-07-14T06:59:55.974Z,400
2017-07-14T07:00:55.638Z,415
2017-07-14T07:01:55.320Z,435
2017-07-14T07:02:55.634Z,435
2017-07-14T07:03:55.302Z,550
2017-07-14T07:04:55.306Z,480
2017-07-14T07:05:55.646Z,765
2017-07-14T07:06:55.633Z,535
2017-07-14T07:07:55.303Z,510
2017-07-14T07:08:55.299Z,620
2017-07-14T07:09:55.313Z,485
2017-07-14T07:10:55.294Z,790
2017-07-14T07:11:57.230Z,840
2017-07-14T07:12:55.641Z,575
2017-07-14T07:13:55.638Z,680
2017-07-14T07:14:55.329Z,345
2017-07-14T07:15:55.290Z,425
2017-07-14T07:16:56.273Z,640
2017-07-14T07:17:54.961Z,590
2017-07-14T07:18:54.975Z,560
2017-07-14T07:19:55.289Z,540
2017-07-14T07:20:55.285Z,540
2017-07-14T07:21:55.309Z,535
2017-07-14T07:22:55.617Z,520
2017-07-14T07:23:55.620Z,510
2017-07-14T07:24:55.288Z,510
2017-07-14T07:25:54.961Z,505
2017-07-14T07:26:55.629Z,520
2017-07-14T07:27:54.963Z,535
2017-07-14T07:28:55.636Z,525
2017-07-14T07:29:54.966Z,510
2017-07-14T07:30:55.644Z,510
2017-07-14T07:31:55.306Z,530
2017-07-14T07:32:55.637Z,525
2017-07-14T07:33:55.352Z,505
2017-07-14T07:34:55.309Z,495
2017-07-14T07:35:55.320Z,500
2017-07-14T07:36:55.315Z,510
2017-07-14T07:37:55.643Z,520
2017-07-14T07:38:55.658Z,515
2017-07-14T07:39:56.002Z,515
2017-07-14T07:40:55.331Z,530
2017-07-14T07:41:55.358Z,525
2017-07-14T07:42:55.352Z,525
2017-07-14T07:43:57.351Z,525
2017-07-14T07:44:55.675Z,525
2017-07-14T07:45:55.687Z,525
2017-07-14T07:46:55.702Z,520
2017-07-14T07:47:55.361Z,525
2017-07-14T07:48:55.364Z,535
2017-07-14T07:49:55.368Z,540
2017-07-14T07:50:55.699Z,535
2017-07-14T07:51:55.376Z,485
2017-07-14T07:52:55.381Z,405
2017-07-14T07:53:55.384Z,325
2017-07-14T07:54:55.723Z,280
2017-07-14T07:55:55.083Z,270
2017-07-14T07:56:55.414Z,265
2017-07-14T07:57:55.425Z,260
2017-07-14T07:58:55.433Z,255
2017-07-14T07:59:55.754Z,260
2017-07-14T08:00:55.421Z,255
2017-07-14T08:01:56.084Z,275
2017-07-14T08:02:56.096Z,280
2017-07-14T08:03:55.110Z,285
2017-07-14T08:04:55.450Z,295
2017-07-14T08:05:55.454Z,320
2017-07-14T08:06:55.464Z,325
2017-07-14T08:07:55.463Z,365
2017-07-14T08:08:55.473Z,420
2017-07-14T08:09:55.803Z,450
2017-07-14T08:10:55.491Z,505
2017-07-14T08:11:55.805Z,550
2017-07-14T08:12:55.484Z,585
2017-07-14T08:13:55.489Z,585
2017-07-14T08:14:55.878Z,555
2017-07-14T08:15:55.504Z,540
2017-07-14T08:16:56.176Z,500
2017-07-14T08:17:55.189Z,420
2017-07-14T08:18:56.176Z,355
2017-07-14T08:19:55.863Z,340
2017-07-14T08:20:55.526Z,365
2017-07-14T08:21:55.530Z,390
2017-07-14T08:22:55.197Z,385
2017-07-14T08:23:55.529Z,330
2017-07-14T08:24:55.873Z,260
2017-07-14T08:25:55.566Z,240
2017-07-14T08:26:56.228Z,235
2017-07-14T08:27:56.216Z,240
2017-07-14T08:28:55.875Z,245
2017-07-14T08:29:55.230Z,245
2017-07-14T08:30:55.548Z,250
2017-07-14T08:31:55.242Z,255
2017-07-14T08:32:55.882Z,255
2017-07-14T08:33:56.217Z,265
2017-07-14T08:34:55.881Z,285
2017-07-14T08:35:55.554Z,310
2017-07-14T08:36:55.895Z,355
2017-07-14T08:37:55.557Z,430
2017-07-14T08:38:55.233Z,470
2017-07-14T08:39:55.890Z,545
2017-07-14T08:40:55.896Z,560
2017-07-14T08:41:56.232Z,490
2017-07-14T08:42:55.593Z,425
2017-07-14T08:43:55.575Z,355
2017-07-14T08:44:55.925Z,305
2017-07-14T08:45:55.571Z,260
2017-07-14T08:46:55.597Z,230
2017-07-14T08:47:55.603Z,205
2017-07-14T08:48:55.911Z,180
2017-07-14T08:49:56.294Z,165
2017-07-14T08:50:55.620Z,150
2017-07-14T08:51:55.593Z,140
2017-07-14T08:52:55.922Z,135
2017-07-14T08:53:56.592Z,130
2017-07-14T08:54:55.571Z,120
2017-07-14T08:55:55.902Z,115
2017-07-14T08:56:55.572Z,110
2017-07-14T08:57:55.571Z,110
2017-07-14T08:58:55.922Z,105
2017-07-14T08:59:55.910Z,100
2017-07-14T09:00:55.573Z,95
2017-07-14T09:01:55.580Z,90
2017-07-14T09:02:55.902Z,90
2017-07-14T09:03:55.567Z,90
2017-07-14T09:04:55.567Z,90
2017-07-14T09:05:55.237Z,90
2017-07-14T09:06:56.244Z,95
2017-07-14T09:07:55.232Z,95
2017-07-14T09:08:55.889Z,100
2017-07-14T09:09:55.882Z,100
2017-07-14T09:10:55.554Z,105
2017-07-14T09:11:55.556Z,110
2017-07-14T09:12:55.233Z,120
2017-07-14T09:13:55.548Z,130
2017-07-14T09:14:55.244Z,135
2017-07-14T09:15:55.550Z,150
2017-07-14T09:16:55.555Z,165
2017-07-14T09:17:55.880Z,180
2017-07-14T09:18:55.539Z,190
2017-07-14T09:19:56.198Z,205
2017-07-14T09:20:55.865Z,210
2017-07-14T09:21:55.869Z,215
2017-07-14T09:22:59.633Z,225
2017-07-14T09:23:55.532Z,230
2017-07-14T09:24:55.524Z,235
2017-07-14T09:25:55.587Z,235
2017-07-14T09:26:55.851Z,230
2017-07-14T09:27:55.192Z,225
2017-07-14T09:28:55.520Z,230
2017-07-14T09:29:56.206Z,235
2017-07-14T09:30:55.521Z,250
2017-07-14T09:31:55.838Z,260
2017-07-14T09:32:55.507Z,270
2017-07-14T09:33:55.515Z,275
2017-07-14T09:34:55.847Z,280
2017-07-14T09:35:55.503Z,285
2017-07-14T09:36:55.520Z,295
2017-07-14T09:37:56.175Z,305
2017-07-14T09:38:55.821Z,310
2017-07-14T09:39:55.508Z,315
2017-07-14T09:40:55.815Z,320
2017-07-14T09:41:55.491Z,320
2017-07-14T09:42:55.827Z,325
2017-07-14T09:43:55.816Z,330
2017-07-14T09:44:56.145Z,315
2017-07-14T09:45:55.808Z,305
2017-07-14T09:46:55.144Z,305
2017-07-14T09:47:55.141Z,330
2017-07-14T09:48:55.795Z,325
2017-07-14T09:49:55.150Z,285
2017-07-14T09:50:55.467Z,295
2017-07-14T09:51:55.462Z,285
2017-07-14T09:52:55.798Z,280
2017-07-14T09:53:55.127Z,280
2017-07-14T09:54:55.795Z,275
2017-07-14T09:55:55.457Z,275
2017-07-14T09:56:55.459Z,270
2017-07-14T09:57:55.775Z,270
2017-07-14T09:58:55.777Z,275
2017-07-14T09:59:56.103Z,285
2017-07-14T10:00:55.119Z,295
2017-07-14T10:01:56.100Z,305
2017-07-14T10:02:55.775Z,320
2017-07-14T10:03:55.443Z,330
2017-07-14T10:04:55.767Z,335
2017-07-14T10:05:56.094Z,345
2017-07-14T10:06:55.437Z,350
2017-07-14T10:07:55.768Z,355
2017-07-14T10:08:55.431Z,345
2017-07-14T10:09:55.105Z,360
2017-07-14T10:10:55.121Z,365
2017-07-14T10:11:55.434Z,370
2017-07-14T10:12:55.101Z,355
2017-07-14T10:13:55.781Z,370
2017-07-14T10:14:55.104Z,365
2017-07-14T10:15:55.428Z,360
2017-07-14T10:16:55.755Z,320
2017-07-14T10:17:55.426Z,285
2017-07-14T10:18:55.754Z,245
2017-07-14T10:19:55.439Z,200
2017-07-14T10:20:55.442Z,165
2017-07-14T10:21:55.754Z,135
2017-07-14T10:22:55.422Z,110
2017-07-14T10:23:55.763Z,90
2017-07-14T10:24:55.093Z,80
2017-07-14T10:25:55.422Z,75
2017-07-14T10:26:55.424Z,75
2017-07-14T10:27:55.747Z,85
2017-07-14T10:28:55.438Z,100
2017-07-14T10:29:56.074Z,110
2017-07-14T10:30:56.070Z,130
2017-07-14T10:31:55.740Z,150
2017-07-14T10:32:55.417Z,175
2017-07-14T10:33:55.739Z,195
2017-07-14T10:34:55.080Z,230
2017-07-14T10:35:55.740Z,245
2017-07-14T10:36:56.064Z,260
2017-07-14T10:37:55.752Z,275
2017-07-14T10:38:55.096Z,285
2017-07-14T10:39:55.731Z,295
2017-07-14T10:40:55.409Z,315
2017-07-14T10:41:55.398Z,325
2017-07-14T10:42:55.398Z,340
2017-07-14T10:43:55.069Z,345
2017-07-14T10:44:55.396Z,355
2017-07-14T10:45:55.070Z,390
2017-07-14T10:46:55.741Z,385
2017-07-14T10:47:55.732Z,390
2017-07-14T10:48:55.058Z,405
2017-07-14T10:49:55.720Z,420
2017-07-14T10:50:55.389Z,395
2017-07-14T10:51:55.054Z,385
2017-07-14T10:52:55.727Z,395
2017-07-14T10:53:55.382Z,420
2017-07-14T10:54:55.709Z,400
2017-07-14T10:55:55.377Z,390
2017-07-14T10:56:55.380Z,365
2017-07-14T10:57:55.725Z,365
2017-07-14T10:58:55.409Z,380
2017-07-14T10:59:55.377Z,400
2017-07-14T11:00:55.373Z,445
2017-07-14T11:01:55.043Z,455
2017-07-14T11:02:55.386Z,470
2017-07-14T11:03:55.698Z,470
2017-07-14T11:04:55.043Z,480
2017-07-14T11:05:55.051Z,500
2017-07-14T11:06:55.041Z,505
2017-07-14T11:07:56.034Z,505
2017-07-14T11:08:56.037Z,505
2017-07-14T11:09:55.368Z,520
2017-07-14T11:10:55.698Z,520
2017-07-14T11:11:55.684Z,535
2017-07-14T11:12:56.021Z,540
2017-07-14T11:13:55.691Z,540
2017-07-14T11:14:55.387Z,535
2017-07-14T11:15:55.052Z,545
2017-07-14T11:16:55.377Z,540
2017-07-14T11:17:55.383Z,525
2017-07-14T11:18:55.361Z,505
2017-07-14T11:19:55.361Z,500
2017-07-14T11:20:55.031Z,505
2017-07-14T11:21:55.030Z,505
2017-07-14T11:22:55.693Z,520
2017-07-14T11:23:55.687Z,540
2017-07-14T11:24:55.705Z,540
2017-07-14T11:25:55.372Z,500
2017-07-14T11:26:55.377Z,475
2017-07-14T11:27:55.357Z,420
2017-07-14T11:28:55.697Z,385
2017-07-14T11:29:55.704Z,345
2017-07-14T11:30:56.014Z,315
2017-07-14T11:31:55.372Z,300
2017-07-14T11:32:55.687Z,310
2017-07-14T11:33:55.718Z,320
2017-07-14T11:34:56.023Z,335
2017-07-14T11:35:55.699Z,350
2017-07-14T11:36:55.360Z,360
2017-07-14T11:37:56.019Z,360
2017-07-14T11:38:55.367Z,340
2017-07-14T11:39:55.355Z,325
2017-07-14T11:40:55.720Z,315
2017-07-14T11:41:55.706Z,305
2017-07-14T11:42:55.686Z,295
2017-07-14T11:43:55.351Z,285
2017-07-14T11:44:55.682Z,285
2017-07-14T11:45:56.011Z,275
2017-07-14T11:46:55.359Z,265
2017-07-14T11:47:55.690Z,250
2017-07-14T11:48:55.718Z,245
2017-07-14T11:49:55.038Z,255
2017-07-14T11:50:55.691Z,270
2017-07-14T11:51:55.348Z,290
2017-07-14T11:52:55.678Z,315
2017-07-14T11:53:55.020Z,355
2017-07-14T11:54:55.351Z,410
2017-07-14T11:55:55.695Z,460
2017-07-14T11:56:55.342Z,500
2017-07-14T11:57:55.018Z,525
2017-07-14T11:58:55.369Z,525
2017-07-14T11:59:55.343Z,530
2017-07-14T12:00:55.016Z,530
2017-07-14T12:01:55.697Z,525
2017-07-14T12:02:55.673Z,525
2017-07-14T12:03:55.338Z,535
2017-07-14T12:04:55.374Z,540
2017-07-14T12:05:55.011Z,560
2017-07-14T12:06:55.875Z,575
2017-07-14T12:07:55.359Z,595
2017-07-14T12:08:55.668Z,605
2017-07-14T12:09:55.687Z,610
2017-07-14T12:10:55.662Z,605
2017-07-14T12:11:55.333Z,590
2017-07-14T12:12:55.009Z,585
2017-07-14T12:13:55.351Z,585
2017-07-14T12:14:55.027Z,590
2017-07-14T12:15:55.994Z,605
2017-07-14T12:16:55.023Z,615
2017-07-14T12:17:55.364Z,630
2017-07-14T12:18:55.338Z,645
2017-07-14T12:19:55.333Z,665
2017-07-14T12:20:55.662Z,680
2017-07-14T12:21:55.004Z,685
2017-07-14T12:22:55.334Z,685
2017-07-14T12:23:55.335Z,690
2017-07-14T12:24:55.335Z,700
2017-07-14T12:25:56.347Z,695
2017-07-14T12:26:55.010Z,680
2017-07-14T12:27:55.663Z,670
2017-07-14T12:28:55.019Z,630
2017-07-14T12:29:55.667Z,630
2017-07-14T12:30:55.719Z,645
2017-07-14T12:31:55.683Z,660
2017-07-14T12:32:55.341Z,670
2017-07-14T12:33:55.338Z,660
2017-07-14T12:34:55.686Z,650
2017-07-14T12:35:55.347Z,620
2017-07-14T12:36:56.013Z,570
2017-07-14T12:37:55.361Z,525
2017-07-14T12:38:55.369Z,475
2017-07-14T12:39:55.674Z,470
2017-07-14T12:40:55.018Z,460
2017-07-14T12:41:55.692Z,460
2017-07-14T12:42:55.379Z,480
2017-07-14T12:43:55.383Z,480
2017-07-14T12:44:55.349Z,485
2017-07-14T12:45:55.351Z,505
2017-07-14T12:46:55.752Z,530
2017-07-14T12:47:55.371Z,560
2017-07-14T12:48:55.695Z,585
2017-07-14T12:49:55.361Z,605
2017-07-14T12:50:55.374Z,605
2017-07-14T12:51:55.689Z,600
2017-07-14T12:52:55.025Z,585
2017-07-14T12:53:55.723Z,575
2017-07-14T12:54:55.559Z,585
2017-07-14T12:55:55.358Z,575
2017-07-14T12:56:55.052Z,560
2017-07-14T12:57:55.385Z,540
2017-07-14T12:58:55.368Z,525
2017-07-14T12:59:55.370Z,525
2017-07-14T13:00:55.722Z,535
2017-07-14T13:01:55.399Z,535
2017-07-14T13:02:56.030Z,530
2017-07-14T13:03:56.033Z,530
2017-07-14T13:04:55.374Z,520
2017-07-14T13:05:55.367Z,505
2017-07-14T13:06:56.039Z,480
2017-07-14T13:07:55.038Z,470
2017-07-14T13:08:55.383Z,480
2017-07-14T13:09:56.036Z,485
2017-07-14T13:10:55.695Z,495
2017-07-14T13:11:55.700Z,505
2017-07-14T13:12:55.699Z,510
2017-07-14T13:13:56.046Z,520
2017-07-14T13:14:55.698Z,520
2017-07-14T13:15:55.402Z,510
2017-07-14T13:16:55.385Z,520
2017-07-14T13:17:55.377Z,515
2017-07-14T13:18:55.059Z,505
2017-07-14T13:19:55.728Z,510
2017-07-14T13:20:55.719Z,485
2017-07-14T13:21:55.482Z,465
2017-07-14T13:22:55.085Z,460
2017-07-14T13:23:55.043Z,460
2017-07-14T13:24:55.375Z,465
2017-07-14T13:25:55.711Z,470
2017-07-14T13:26:55.384Z,480
2017-07-14T13:27:55.048Z,485
2017-07-14T13:28:55.384Z,510
2017-07-14T13:29:55.723Z,515
2017-07-14T13:30:55.723Z,520
2017-07-14T13:31:55.377Z,520
2017-07-14T13:32:55.705Z,515
2017-07-14T13:33:55.709Z,520
2017-07-14T13:34:55.704Z,515
2017-07-14T13:35:55.379Z,510
2017-07-14T13:36:55.707Z,505
2017-07-14T13:37:55.714Z,490
2017-07-14T13:38:56.032Z,495
2017-07-14T13:39:55.050Z,520
2017-07-14T13:40:55.065Z,530
2017-07-14T13:41:55.380Z,540
2017-07-14T13:42:55.748Z,535
2017-07-14T13:43:55.731Z,525
2017-07-14T13:44:55.739Z,520
2017-07-14T13:45:56.034Z,505
2017-07-14T13:46:55.050Z,490
2017-07-14T13:47:55.391Z,475
2017-07-14T13:48:55.382Z,440
2017-07-14T13:49:55.717Z,425
2017-07-14T13:50:55.711Z,425
2017-07-14T13:51:55.710Z,430
2017-07-14T13:52:55.392Z,435
2017-07-14T13:53:55.381Z,430
2017-07-14T13:54:55.053Z,420
2017-07-14T13:55:56.043Z,400
2017-07-14T13:56:55.399Z,380
2017-07-14T13:57:55.385Z,355
2017-07-14T13:58:55.378Z,335
2017-07-14T13:59:55.708Z,305
2017-07-14T14:00:55.711Z,280
2017-07-14T14:01:55.710Z,255
2017-07-14T14:02:55.708Z,235